Matagorda, Texas
Current Conditions -  °F | °C
As of 12:53 AM on Saturday 25 Oct 2014 (Local Time) from KPSX Reporting Station
Clear Clear  
Wind Chill: 65°   Ceiling: Unl
Heat Index: 65°   Visibility: 10mi
Dew Point: 60°   Wind: 5mph
Humidity: 84%   Direction: 80°E
Pressure: 30.14"   Gusts: NA
Location:  28.69°N, 95.97°W
Report Text: KPSX 250553Z AUTO 08004KT 10SM CLR 18/16 A3014 RMK AO2 SLP204 T01830156 10222 20178 402940139 58000
Loading
Personal Weather Stations






























Interactive Weather Map
Tropical Storm Tracking
New forecast layout! Learn more

10-Day Weather Forecast

Advertisements
Track Severe Weather on mobile